Terminal Aerodrome Forecast
Issued by NWS Sioux Falls, SD

Home | Current Version | Previous Version | Text Only | Print | Product List | Glossary Off
Versions: 1 2 3 4 5 6 7 8 9 10 11 12 13 14 15 16

000
FTUS43 KFSD 271100 AAA
TAFFSD
TAF AMD
KFSD 271122Z 2711/2806 10004KT P6SM BKN050
      TEMPO 2711/2713 BKN017
     FM271800 13007KT P6SM FEW030 BKN120
     FM280300 13007KT P6SM SCT015 BKN120
      TEMPO 2803/2806 3SM TSRA SCT008 OVC020CB=

USA.gov is the U.S. government's official web portal to all federal, state and local government web resources and services.